createdAt,value
2023-01-19T00:00:46.007Z,20.73
2023-01-19T00:03:16.395Z,22.17
2023-01-19T00:05:44.718Z,22.38
2023-01-19T00:08:15.062Z,26.83
2023-01-19T00:10:44.404Z,25.35
2023-01-19T00:13:11.854Z,19.15
2023-01-19T00:15:39.355Z,27.73
2023-01-19T00:18:07.615Z,23.92
2023-01-19T00:20:35.983Z,24.15
2023-01-19T00:23:04.923Z,20.83
2023-01-19T00:25:32.241Z,30.52
2023-01-19T00:28:01.542Z,21.05
2023-01-19T00:30:29.181Z,25.75
2023-01-19T00:32:56.883Z,18.45
2023-01-19T00:35:24.096Z,25.00
2023-01-19T00:37:51.519Z,25.23
2023-01-19T00:40:18.819Z,25.50
2023-01-19T00:42:48.365Z,22.52
2023-01-19T00:45:20.427Z,21.13
2023-01-19T00:47:48.883Z,25.52
2023-01-19T00:50:17.580Z,25.00
2023-01-19T00:52:45.443Z,28.33
2023-01-19T00:55:14.341Z,23.08
2023-01-19T00:57:42.116Z,9.48
2023-01-19T01:00:12.682Z,21.48
2023-01-19T01:02:41.957Z,17.67
2023-01-19T01:05:09.984Z,23.52
2023-01-19T01:07:45.190Z,23.73
2023-01-19T01:10:27.468Z,27.17
2023-01-19T01:12:57.656Z,19.65
2023-01-19T01:15:26.676Z,16.80
2023-01-19T01:17:54.529Z,19.30
2023-01-19T01:20:25.622Z,12.13
2023-01-19T01:22:54.025Z,27.60
2023-01-19T01:25:24.103Z,20.73
2023-01-19T01:27:51.787Z,22.83
2023-01-19T01:30:19.749Z,23.65
2023-01-19T01:32:46.892Z,20.85
2023-01-19T01:35:14.212Z,20.20
2023-01-19T01:37:43.017Z,22.48
2023-01-19T01:40:16.028Z,24.67
2023-01-19T01:42:43.583Z,16.95
2023-01-19T01:45:31.183Z,20.13
2023-01-19T01:48:27.590Z,26.75
2023-01-19T01:51:18.811Z,24.42
2023-01-19T01:56:20.739Z,29.08
2023-01-19T01:58:49.090Z,19.55
2023-01-19T02:01:34.940Z,23.33
2023-01-19T02:04:02.438Z,20.42
2023-01-19T02:06:29.779Z,28.20
2023-01-19T02:09:25.839Z,23.60
2023-01-19T02:12:13.248Z,25.13
2023-01-19T02:14:40.370Z,18.65
2023-01-19T02:17:07.721Z,30.73
2023-01-19T02:19:54.994Z,24.80
2023-01-19T02:22:32.051Z,21.00
2023-01-19T02:24:59.387Z,24.88
2023-01-19T02:27:26.602Z,33.75
2023-01-19T02:29:54.302Z,34.78
2023-01-19T02:32:21.433Z,10.07
2023-01-19T02:34:48.556Z,20.63
2023-01-19T02:37:17.548Z,24.92
2023-01-19T02:39:58.143Z,24.48
2023-01-19T02:42:36.095Z,27.00
2023-01-19T02:45:09.597Z,27.45
2023-01-19T02:47:43.375Z,33.60
2023-01-19T02:50:43.775Z,25.98
2023-01-19T02:53:21.147Z,21.20
2023-01-19T02:55:57.172Z,24.23
2023-01-19T02:58:56.956Z,17.10
2023-01-19T03:01:43.177Z,22.92
2023-01-19T03:04:29.107Z,25.65
2023-01-19T03:07:02.959Z,21.27
2023-01-19T03:09:43.833Z,17.33
2023-01-19T03:12:46.001Z,20.70
2023-01-19T03:15:22.381Z,24.80
2023-01-19T03:17:51.561Z,26.88
2023-01-19T03:20:25.541Z,20.13
2023-01-19T03:23:00.630Z,16.20
2023-01-19T03:25:31.266Z,15.40
2023-01-19T03:27:58.517Z,24.27
2023-01-19T03:30:34.879Z,21.25
2023-01-19T03:33:13.164Z,21.63
2023-01-19T03:35:49.153Z,14.73
2023-01-19T03:38:20.977Z,21.67
2023-01-19T03:40:49.027Z,18.02
2023-01-19T03:43:17.605Z,23.67
2023-01-19T03:45:45.389Z,20.20
2023-01-19T03:48:12.826Z,16.50
2023-01-19T03:50:39.952Z,19.17
2023-01-19T03:53:09.657Z,20.75
2023-01-19T03:55:38.740Z,21.75
2023-01-19T03:58:06.063Z,20.33
2023-01-19T04:00:34.142Z,19.67
2023-01-19T04:03:01.644Z,20.50
2023-01-19T04:05:29.612Z,20.83
2023-01-19T04:07:57.034Z,22.98
2023-01-19T04:10:24.509Z,17.88
2023-01-19T04:12:58.340Z,25.63
2023-01-19T04:15:26.535Z,20.55
2023-01-19T04:17:53.823Z,17.92
2023-01-19T04:20:21.860Z,20.85
2023-01-19T04:22:49.740Z,19.70
2023-01-19T04:25:16.986Z,18.17
2023-01-19T04:27:44.128Z,25.25
2023-01-19T04:30:12.026Z,20.50
2023-01-19T04:32:39.170Z,18.48
2023-01-19T04:35:07.131Z,21.45
2023-01-19T04:37:34.185Z,17.67
2023-01-19T04:40:01.258Z,18.00
2023-01-19T04:42:30.043Z,17.65
2023-01-19T04:44:57.167Z,23.92
2023-01-19T04:47:24.283Z,18.80
2023-01-19T04:49:51.374Z,18.92
2023-01-19T04:52:18.549Z,21.45
2023-01-19T04:54:45.629Z,21.17
2023-01-19T04:57:12.741Z,17.75
2023-01-19T04:59:40.266Z,21.15
2023-01-19T05:02:07.460Z,12.35
2023-01-19T05:04:34.743Z,22.00
2023-01-19T05:07:02.305Z,19.50
2023-01-19T05:09:29.411Z,19.92
2023-01-19T05:11:56.569Z,16.98
2023-01-19T05:14:23.737Z,19.27
2023-01-19T05:16:50.865Z,25.80
2023-01-19T05:19:17.960Z,18.92
2023-01-19T05:21:45.098Z,25.58
2023-01-19T05:24:12.303Z,15.43
2023-01-19T05:26:39.530Z,24.77
2023-01-19T05:29:06.689Z,31.70
2023-01-19T05:31:34.014Z,18.50
2023-01-19T05:34:01.180Z,21.55
2023-01-19T05:36:28.432Z,20.75
2023-01-19T05:38:55.679Z,25.75
2023-01-19T05:41:23.277Z,23.67
2023-01-19T05:43:50.419Z,16.75
2023-01-19T05:46:17.554Z,19.98
2023-01-19T05:48:45.258Z,20.27
2023-01-19T05:51:12.464Z,16.17
2023-01-19T05:53:39.687Z,19.98
2023-01-19T05:56:09.373Z,17.40
2023-01-19T05:58:39.496Z,21.42
2023-01-19T06:01:08.758Z,18.00
2023-01-19T06:03:37.310Z,18.38
2023-01-19T06:06:04.651Z,23.45
2023-01-19T06:08:31.868Z,18.17
2023-01-19T06:10:58.978Z,25.92
2023-01-19T06:13:26.198Z,22.40
2023-01-19T06:15:59.807Z,22.73
2023-01-19T06:18:27.264Z,23.48
2023-01-19T06:21:03.342Z,24.17
2023-01-19T06:23:34.331Z,24.50
2023-01-19T06:26:02.085Z,21.95
2023-01-19T06:28:29.317Z,23.02
2023-01-19T06:30:57.382Z,20.15
2023-01-19T06:33:25.492Z,28.10
2023-01-19T06:35:52.725Z,31.15
2023-01-19T06:38:19.927Z,28.70
2023-01-19T06:40:54.010Z,26.88
2023-01-19T06:43:21.615Z,19.55
2023-01-19T06:45:49.184Z,24.83
2023-01-19T06:48:17.195Z,29.80
2023-01-19T06:50:48.592Z,22.80
2023-01-19T06:53:16.821Z,31.83
2023-01-19T06:55:44.489Z,26.88
2023-01-19T06:58:11.671Z,23.65
2023-01-19T07:00:38.971Z,23.58
2023-01-19T07:03:07.755Z,24.85
2023-01-19T07:05:36.237Z,28.95
2023-01-19T07:08:04.140Z,26.02
2023-01-19T07:11:22.403Z,29.70
2023-01-19T07:13:19.195Z,30.55
2023-01-19T07:15:46.374Z,35.08
2023-01-19T07:18:13.484Z,27.45
2023-01-19T07:20:40.622Z,28.27
2023-01-19T07:23:07.875Z,29.30
2023-01-19T07:25:34.960Z,23.65
2023-01-19T07:28:02.376Z,28.55
2023-01-19T07:30:29.656Z,27.70
2023-01-19T07:32:58.350Z,29.75
2023-01-19T07:35:25.988Z,23.88
2023-01-19T07:37:53.101Z,31.60
2023-01-19T07:40:20.633Z,29.38
2023-01-19T07:42:50.472Z,30.55
2023-01-19T07:45:20.586Z,30.20
2023-01-19T07:47:50.074Z,32.50
2023-01-19T07:50:21.361Z,30.70
2023-01-19T07:52:51.888Z,28.67
2023-01-19T07:55:20.315Z,32.88
2023-01-19T07:57:51.741Z,26.02
2023-01-19T08:00:22.104Z,28.27
2023-01-19T08:02:52.303Z,37.20
2023-01-19T08:05:20.577Z,23.88
2023-01-19T08:07:48.497Z,28.48
2023-01-19T08:10:16.790Z,34.15
2023-01-19T08:12:44.187Z,28.75
2023-01-19T08:15:11.734Z,33.22
2023-01-19T08:17:38.912Z,36.17
2023-01-19T08:20:06.860Z,28.77
2023-01-19T08:22:33.961Z,33.47
2023-01-19T08:25:01.079Z,32.05
2023-01-19T08:27:31.394Z,28.25
2023-01-19T08:29:59.030Z,31.50
2023-01-19T08:32:26.335Z,28.88
2023-01-19T08:34:53.555Z,29.27
2023-01-19T08:37:20.622Z,35.80
2023-01-19T08:39:47.746Z,32.28
2023-01-19T08:42:14.850Z,34.88
2023-01-19T08:44:57.224Z,34.63
2023-01-19T08:47:25.048Z,27.67
2023-01-19T08:49:52.185Z,35.05
2023-01-19T08:52:19.270Z,36.20
2023-01-19T08:54:46.388Z,34.75
2023-01-19T08:57:13.450Z,29.98
2023-01-19T08:59:40.643Z,34.65
2023-01-19T09:02:10.700Z,32.80
2023-01-19T09:04:38.158Z,37.85
2023-01-19T09:09:33.198Z,39.22
2023-01-19T09:12:00.281Z,54.42
2023-01-19T09:14:27.400Z,35.47
2023-01-19T09:16:56.286Z,28.80
2023-01-19T09:19:23.346Z,29.88
2023-01-19T09:21:51.059Z,41.95
2023-01-19T09:24:18.185Z,34.13
2023-01-19T09:26:45.559Z,37.83
2023-01-19T09:29:13.727Z,36.88
2023-01-19T09:31:41.205Z,30.00
2023-01-19T09:34:08.328Z,33.70
2023-01-19T09:36:37.392Z,40.33
2023-01-19T09:39:04.546Z,33.47
2023-01-19T09:41:35.425Z,34.63
2023-01-19T09:44:02.606Z,40.08
2023-01-19T09:46:39.181Z,40.03
2023-01-19T09:49:14.254Z,34.50
2023-01-19T09:51:46.406Z,42.80
2023-01-19T09:54:16.450Z,35.47
2023-01-19T09:56:46.130Z,35.72
2023-01-19T09:59:33.690Z,32.33
2023-01-19T10:02:14.659Z,30.73
2023-01-19T10:04:58.286Z,37.78
2023-01-19T10:07:32.696Z,35.20
2023-01-19T10:10:07.274Z,30.52
2023-01-19T10:12:51.101Z,39.15
2023-01-19T10:15:21.142Z,36.10
2023-01-19T10:18:10.395Z,39.80
2023-01-19T10:20:43.644Z,29.02
2023-01-19T10:23:36.086Z,34.25
2023-01-19T10:26:28.985Z,39.03
2023-01-19T10:29:03.096Z,31.20
2023-01-19T10:31:31.881Z,31.75
2023-01-19T10:33:59.069Z,40.45
2023-01-19T10:36:35.909Z,31.35
2023-01-19T10:39:07.669Z,42.45
2023-01-19T10:41:49.061Z,35.35
2023-01-19T10:44:27.461Z,40.83
2023-01-19T10:46:58.789Z,38.97
2023-01-19T10:49:39.235Z,39.35
2023-01-19T10:52:09.052Z,29.02
2023-01-19T10:54:37.701Z,28.52
2023-01-19T10:57:09.736Z,34.72
2023-01-19T10:59:46.870Z,32.40
2023-01-19T11:02:18.796Z,37.08
2023-01-19T11:04:50.112Z,28.27
2023-01-19T11:07:26.354Z,36.85
2023-01-19T11:10:15.378Z,33.67
2023-01-19T11:12:53.417Z,24.58
2023-01-19T11:15:29.907Z,28.90
2023-01-19T11:17:57.269Z,43.85
2023-01-19T11:20:30.661Z,31.45
2023-01-19T11:23:34.311Z,39.00
2023-01-19T11:26:05.501Z,41.13
2023-01-19T11:28:44.982Z,43.95
2023-01-19T11:31:15.052Z,30.25
2023-01-19T11:33:50.728Z,36.70
2023-01-19T11:36:23.570Z,38.53
2023-01-19T11:38:53.660Z,34.15
2023-01-19T11:41:23.582Z,36.92
2023-01-19T11:43:55.236Z,38.60
2023-01-19T11:46:26.668Z,37.15
2023-01-19T11:49:02.209Z,34.85
2023-01-19T11:51:37.448Z,37.47
2023-01-19T11:54:17.931Z,36.85
2023-01-19T11:56:47.726Z,51.42
2023-01-19T11:59:15.262Z,38.72
2023-01-19T12:01:50.895Z,38.95
2023-01-19T12:04:27.800Z,38.50
2023-01-19T12:06:57.487Z,36.55
2023-01-19T12:09:28.471Z,38.33
2023-01-19T12:14:43.903Z,37.65
2023-01-19T12:17:17.778Z,38.83
2023-01-19T12:19:54.893Z,39.58
2023-01-19T12:22:24.123Z,43.42
2023-01-19T12:25:10.600Z,31.58
2023-01-19T12:27:43.566Z,40.00
2023-01-19T12:30:31.408Z,33.35
2023-01-19T12:33:21.060Z,40.75
2023-01-19T12:35:59.690Z,34.22
2023-01-19T12:38:39.025Z,28.90
2023-01-19T12:41:22.291Z,46.08
2023-01-19T12:44:11.236Z,37.03
2023-01-19T12:46:39.567Z,36.70
2023-01-19T12:49:27.367Z,33.80
2023-01-19T12:52:17.431Z,38.03
2023-01-19T12:54:54.036Z,41.45
2023-01-19T12:57:39.281Z,37.65
2023-01-19T13:00:28.966Z,46.65
2023-01-19T13:02:58.544Z,42.90
2023-01-19T13:05:55.306Z,39.70
2023-01-19T13:08:26.610Z,42.28
2023-01-19T13:10:59.988Z,27.60
2023-01-19T13:13:37.979Z,36.88
2023-01-19T13:16:20.627Z,39.63
2023-01-19T13:18:54.048Z,42.95
2023-01-19T13:21:43.623Z,38.55
2023-01-19T13:24:15.151Z,41.13
2023-01-19T13:26:55.583Z,52.85
2023-01-19T13:29:35.457Z,35.22
2023-01-19T13:32:06.558Z,40.35
2023-01-19T13:35:02.257Z,38.08
2023-01-19T13:37:40.263Z,41.17
2023-01-19T13:40:08.242Z,41.13
2023-01-19T13:42:41.572Z,38.55
2023-01-19T13:45:33.889Z,40.50
2023-01-19T13:48:05.034Z,49.03
2023-01-19T13:50:59.811Z,33.08
2023-01-19T13:53:26.945Z,37.47
2023-01-19T13:56:22.155Z,39.53
2023-01-19T13:59:03.990Z,39.30
2023-01-19T14:01:33.098Z,34.20
2023-01-19T14:04:00.607Z,39.90
2023-01-19T14:06:30.739Z,40.20
2023-01-19T14:09:10.735Z,24.92
2023-01-19T14:11:38.252Z,39.50
2023-01-19T14:14:05.457Z,43.65
2023-01-19T14:16:32.588Z,44.88
2023-01-19T14:19:04.795Z,45.88
2023-01-19T14:21:42.562Z,36.25
2023-01-19T14:24:18.548Z,37.08
2023-01-19T14:26:53.043Z,36.10
2023-01-19T14:29:33.539Z,29.55
2023-01-19T14:32:00.610Z,40.90
2023-01-19T14:34:37.265Z,40.92
2023-01-19T14:37:14.401Z,38.40
2023-01-19T14:39:46.376Z,27.13
2023-01-19T14:42:24.954Z,41.13
2023-01-19T14:44:54.191Z,31.45
2023-01-19T14:47:43.425Z,35.38
2023-01-19T14:50:33.127Z,30.10
2023-01-19T14:53:25.069Z,23.75
2023-01-19T14:55:59.474Z,26.17
2023-01-19T14:58:32.688Z,31.20
2023-01-19T15:01:00.097Z,32.80
2023-01-19T15:03:44.628Z,26.67
2023-01-19T15:06:18.892Z,28.02
2023-01-19T15:08:46.883Z,32.15
2023-01-19T15:11:27.739Z,27.00
2023-01-19T15:13:55.693Z,29.08
2023-01-19T15:16:29.273Z,22.40
2023-01-19T15:18:56.634Z,30.25
2023-01-19T15:21:26.575Z,28.73
2023-01-19T15:23:54.794Z,25.15
2023-01-19T15:26:24.120Z,25.02
2023-01-19T15:28:51.761Z,24.00
2023-01-19T15:31:21.938Z,26.83
2023-01-19T15:33:49.416Z,19.73
2023-01-19T15:36:18.742Z,26.23
2023-01-19T15:38:46.812Z,26.10
2023-01-19T15:41:21.222Z,31.52
2023-01-19T15:43:49.711Z,25.65
2023-01-19T15:46:20.752Z,40.00
2023-01-19T15:51:18.057Z,30.02
2023-01-19T15:53:45.939Z,26.15
2023-01-19T15:56:24.638Z,35.33
2023-01-19T15:58:53.555Z,22.83
2023-01-19T16:01:23.313Z,40.88
2023-01-19T16:03:50.997Z,25.52
2023-01-19T16:06:18.515Z,24.55
2023-01-19T16:08:45.719Z,25.58
2023-01-19T16:11:15.246Z,29.45
2023-01-19T16:13:46.353Z,24.30
2023-01-19T16:16:19.571Z,28.77
2023-01-19T16:18:47.569Z,33.78
2023-01-19T16:21:14.806Z,28.60
2023-01-19T16:23:42.272Z,30.17
2023-01-19T16:26:23.640Z,30.20
2023-01-19T16:28:50.800Z,28.85
2023-01-19T16:31:18.059Z,20.92
2023-01-19T16:33:45.675Z,29.85
2023-01-19T16:36:28.898Z,25.45
2023-01-19T16:39:00.476Z,36.28
2023-01-19T16:41:28.219Z,28.45
2023-01-19T16:43:57.479Z,26.23
2023-01-19T16:46:27.229Z,36.50
2023-01-19T16:48:59.658Z,36.22
2023-01-19T16:51:26.761Z,31.55
2023-01-19T16:53:53.912Z,31.15
2023-01-19T16:56:21.227Z,30.60
2023-01-19T16:58:48.346Z,39.40
2023-01-19T17:01:20.075Z,28.23
2023-01-19T17:03:47.786Z,31.23
2023-01-19T17:06:20.471Z,32.38
2023-01-19T17:08:47.711Z,19.95
2023-01-19T17:11:21.296Z,41.22
2023-01-19T17:13:54.544Z,38.17
2023-01-19T17:16:23.628Z,39.45
2023-01-19T17:18:51.355Z,34.55
2023-01-19T17:21:20.119Z,37.95
2023-01-19T17:23:50.142Z,35.33
2023-01-19T17:26:18.474Z,44.47
2023-01-19T17:28:45.967Z,45.92
2023-01-19T17:31:15.405Z,40.22
2023-01-19T17:33:47.045Z,42.25
2023-01-19T17:36:17.543Z,39.88
2023-01-19T17:38:44.669Z,26.15
2023-01-19T17:41:16.822Z,46.33
2023-01-19T17:43:44.741Z,38.97
2023-01-19T17:46:12.997Z,42.67
2023-01-19T17:48:40.176Z,39.13
2023-01-19T17:51:13.082Z,49.85
2023-01-19T17:53:41.227Z,39.38
2023-01-19T17:56:16.129Z,34.13
2023-01-19T17:58:44.925Z,39.50
2023-01-19T18:01:15.037Z,48.22
2023-01-19T18:03:42.576Z,49.25
2023-01-19T18:06:10.330Z,39.60
2023-01-19T18:08:42.818Z,41.42
2023-01-19T18:11:11.356Z,46.38
2023-01-19T18:13:39.274Z,45.53
2023-01-19T18:16:10.254Z,39.83
2023-01-19T18:21:08.039Z,45.78
2023-01-19T18:23:35.906Z,49.05
2023-01-19T18:26:09.909Z,45.42
2023-01-19T18:28:37.683Z,51.22
2023-01-19T18:31:12.821Z,44.92
2023-01-19T18:33:40.647Z,57.63
2023-01-19T18:36:08.938Z,59.42
2023-01-19T18:38:36.315Z,45.03
2023-01-19T18:41:10.159Z,51.15
2023-01-19T18:43:37.748Z,52.58
2023-01-19T18:46:05.353Z,47.22
2023-01-19T18:48:32.769Z,48.80
2023-01-19T18:51:03.547Z,50.10
2023-01-19T18:53:31.874Z,38.08
2023-01-19T18:56:00.113Z,53.83
2023-01-19T18:58:29.310Z,58.60
2023-01-19T19:00:58.140Z,61.10
2023-01-19T19:03:25.673Z,44.53
2023-01-19T19:05:52.840Z,47.75
2023-01-19T19:08:19.996Z,53.92
2023-01-19T19:10:47.158Z,57.42
2023-01-19T19:13:16.040Z,50.40
2023-01-19T19:15:44.527Z,42.50
2023-01-19T19:18:14.060Z,48.28
2023-01-19T19:20:44.335Z,47.35
2023-01-19T19:23:11.995Z,52.93
2023-01-19T19:25:39.444Z,53.28
2023-01-19T19:28:06.833Z,49.47
2023-01-19T19:30:35.788Z,64.35
2023-01-19T19:33:02.957Z,57.10
2023-01-19T19:35:30.123Z,49.08
2023-01-19T19:37:57.815Z,32.22
2023-01-19T19:40:27.084Z,48.60
2023-01-19T19:42:56.353Z,57.05
2023-01-19T19:45:24.962Z,51.05
2023-01-19T19:47:52.102Z,56.78
2023-01-19T19:50:19.265Z,53.45
2023-01-19T19:52:46.433Z,49.95
2023-01-19T19:55:13.690Z,61.45
2023-01-19T19:57:40.881Z,51.65
2023-01-19T20:00:08.624Z,58.65
2023-01-19T20:02:38.820Z,57.55
2023-01-19T20:05:06.287Z,53.58
2023-01-19T20:07:33.519Z,41.08
2023-01-19T20:10:00.703Z,51.00
2023-01-19T20:12:27.955Z,40.22
2023-01-19T20:14:55.084Z,46.35
2023-01-19T20:17:23.323Z,56.70
2023-01-19T20:19:50.505Z,43.25
2023-01-19T20:22:17.773Z,52.47
2023-01-19T20:24:44.946Z,52.78
2023-01-19T20:27:12.102Z,45.35
2023-01-19T20:29:39.397Z,50.20
2023-01-19T20:32:06.587Z,45.70
2023-01-19T20:34:34.221Z,59.58
2023-01-19T20:37:02.238Z,48.13
2023-01-19T20:39:34.716Z,57.58
2023-01-19T20:42:02.440Z,58.10
2023-01-19T20:44:30.328Z,54.38
2023-01-19T20:46:57.534Z,56.55
2023-01-19T20:49:24.746Z,56.50
2023-01-19T20:51:52.269Z,59.17
2023-01-19T20:54:22.743Z,54.03
2023-01-19T20:56:50.285Z,48.00
2023-01-19T20:59:17.836Z,60.47
2023-01-19T21:01:45.620Z,49.35
2023-01-19T21:04:12.976Z,52.03
2023-01-19T21:06:40.420Z,53.55
2023-01-19T21:09:09.697Z,54.20
2023-01-19T21:11:38.304Z,47.72
2023-01-19T21:14:06.746Z,66.20
2023-01-19T21:16:34.759Z,56.75
2023-01-19T21:19:01.946Z,54.45
2023-01-19T21:21:31.116Z,50.05
2023-01-19T21:24:00.662Z,58.95
2023-01-19T21:26:30.077Z,45.67
2023-01-19T21:28:58.458Z,43.92
2023-01-19T21:31:27.775Z,34.35
2023-01-19T21:33:56.680Z,43.55
2023-01-19T21:36:24.772Z,49.42
2023-01-19T21:38:52.576Z,45.17
2023-01-19T21:41:20.234Z,47.53
2023-01-19T21:43:47.834Z,55.63
2023-01-19T21:46:32.259Z,48.38
2023-01-19T21:49:02.036Z,47.17
2023-01-19T21:51:30.141Z,49.70
2023-01-19T21:53:59.763Z,54.10
2023-01-19T21:56:30.150Z,51.28
2023-01-19T21:58:58.653Z,43.97
2023-01-19T22:01:25.795Z,41.70
2023-01-19T22:03:57.233Z,58.08
2023-01-19T22:06:26.165Z,54.17
2023-01-19T22:08:54.271Z,53.88
2023-01-19T22:11:21.979Z,46.28
2023-01-19T22:13:49.183Z,48.00
2023-01-19T22:16:18.440Z,53.75
2023-01-19T22:18:50.022Z,55.42
2023-01-19T22:21:20.432Z,50.38
2023-01-19T22:23:52.985Z,37.80
2023-01-19T22:26:20.345Z,51.38
2023-01-19T22:28:47.621Z,51.35
2023-01-19T22:31:18.829Z,51.67
2023-01-19T22:33:46.422Z,46.17
2023-01-19T22:36:19.789Z,45.15
2023-01-19T22:38:57.481Z,53.47
2023-01-19T22:41:31.220Z,53.10
2023-01-19T22:44:00.521Z,46.63
2023-01-19T22:46:30.284Z,47.70
2023-01-19T22:48:58.173Z,45.72
2023-01-19T22:51:26.607Z,47.80
2023-01-19T22:53:53.795Z,45.25
2023-01-19T22:56:26.144Z,48.47
2023-01-19T22:58:53.763Z,47.22
2023-01-19T23:01:36.172Z,41.20
2023-01-19T23:04:05.579Z,48.30
2023-01-19T23:06:35.419Z,48.47
2023-01-19T23:09:05.849Z,45.08
2023-01-19T23:11:37.241Z,39.92
2023-01-19T23:14:06.932Z,44.47
2023-01-19T23:16:35.999Z,42.15
2023-01-19T23:19:04.017Z,46.38
2023-01-19T23:21:32.390Z,46.05
2023-01-19T23:24:01.880Z,45.50
2023-01-19T23:26:30.935Z,43.72
2023-01-19T23:29:00.392Z,43.90
2023-01-19T23:31:33.192Z,49.83
2023-01-19T23:34:03.073Z,45.92
2023-01-19T23:36:32.292Z,46.93
2023-01-19T23:39:01.414Z,35.53
2023-01-19T23:41:31.123Z,40.47
2023-01-19T23:43:58.575Z,37.50
2023-01-19T23:46:25.789Z,38.25
2023-01-19T23:48:53.736Z,46.05
2023-01-19T23:51:24.027Z,39.00
2023-01-19T23:53:51.840Z,49.10
2023-01-19T23:56:26.306Z,43.20
2023-01-19T23:58:58.985Z,40.80
